Time;durP1;ratioP1;P1;durP2;ratioP2;P2;SDS_P1;SDS_P2;PMS_P1;PMS_P2;Temp;Humidity;BMP_temperature;BMP_pressure;BME280_temperature;BME280_humidity;BME280_pressure;Samples;Min_cycle;Max_cycle;Signal;HPM_P1;HPM_P2
2021/03/18 00:00:42;;;;;;;16.55;14.80;;;4.30;98.30;;;;;;4113355;28;20713;-79
2021/03/18 00:02:44;;;;;;;16.33;14.15;;;4.40;98.30;;;;;;4117297;28;20232;-80
2021/03/18 00:04:47;;;;;;;15.45;13.85;;;4.50;98.30;;;;;;4115466;28;20232;-80
2021/03/18 00:06:50;;;;;;;15.55;13.90;;;4.50;98.30;;;;;;4109472;28;20246;-81
2021/03/18 00:08:52;;;;;;;15.70;14.00;;;4.60;98.30;;;;;;4116657;28;20837;-80
2021/03/18 00:10:55;;;;;;;15.50;13.65;;;4.60;98.30;;;;;;4115190;28;20226;-80
2021/03/18 00:12:58;;;;;;;18.37;14.93;;;4.60;98.30;;;;;;4110144;28;20321;-80
2021/03/18 00:15:01;;;;;;;17.00;14.07;;;4.60;98.30;;;;;;4117712;28;20578;-80
2021/03/18 00:17:03;;;;;;;16.52;14.18;;;4.70;98.30;;;;;;4113736;28;20567;-80
2021/03/18 00:19:05;;;;;;;17.42;13.10;;;4.70;98.30;;;;;;4115746;28;20229;-81
2021/03/18 00:21:09;;;;;;;18.42;13.75;;;4.70;98.30;;;;;;4115137;28;20243;-81
2021/03/18 00:23:11;;;;;;;17.38;13.60;;;4.80;98.30;;;;;;4115310;28;20253;-81
2021/03/18 00:25:17;;;;;;;18.20;14.67;;;4.80;98.30;;;;;;4118827;28;20592;-81
2021/03/18 00:27:19;;;;;;;22.87;14.53;;;4.90;98.30;;;;;;4118745;28;20531;-81
2021/03/18 00:29:21;;;;;;;16.73;13.70;;;4.80;98.30;;;;;;4114648;28;20476;-81
2021/03/18 00:31:32;;;;;;;17.37;15.53;;;4.90;98.30;;;;;;4116555;28;20644;-81
2021/03/18 00:33:35;;;;;;;20.37;15.97;;;4.90;98.30;;;;;;4114161;28;20494;-81
2021/03/18 00:35:38;;;;;;;16.63;14.17;;;4.90;98.30;;;;;;4118134;28;20554;-80
2021/03/18 00:37:42;;;;;;;17.30;14.63;;;5.00;98.30;;;;;;4111700;28;20927;-80
2021/03/18 00:39:44;;;;;;;17.50;12.83;;;5.00;98.30;;;;;;4110988;28;21006;-80
2021/03/18 00:41:46;;;;;;;15.90;13.23;;;5.00;98.30;;;;;;4117190;28;20503;-80
2021/03/18 00:43:48;;;;;;;17.80;15.23;;;5.00;98.30;;;;;;4112698;28;20591;-81
2021/03/18 00:45:52;;;;;;;19.77;12.70;;;5.10;98.30;;;;;;4111159;28;20577;-80
2021/03/18 00:47:54;;;;;;;16.23;13.10;;;5.10;98.30;;;;;;4114324;28;20481;-80
2021/03/18 00:49:56;;;;;;;18.20;14.33;;;5.10;98.30;;;;;;4117083;28;20500;-80
2021/03/18 00:51:58;;;;;;;18.87;14.00;;;5.00;98.30;;;;;;4114077;28;20909;-80
2021/03/18 00:54:01;;;;;;;18.07;15.03;;;5.00;98.30;;;;;;4116843;28;20488;-80
2021/03/18 00:56:04;;;;;;;16.17;14.47;;;5.00;98.30;;;;;;4116107;28;21019;-81
2021/03/18 00:58:07;;;;;;;15.97;13.30;;;5.00;98.30;;;;;;4113033;28;20591;-79
2021/03/18 01:00:13;;;;;;;18.97;15.27;;;5.00;98.30;;;;;;4110021;28;20497;-80
2021/03/18 01:02:16;;;;;;;17.00;13.37;;;5.00;98.30;;;;;;4113230;28;20488;-80
2021/03/18 01:04:18;;;;;;;14.87;13.23;;;5.00;98.30;;;;;;4116700;28;20492;-79
2021/03/18 01:06:22;;;;;;;16.70;13.47;;;5.00;98.30;;;;;;4115070;28;20548;-80
2021/03/18 01:08:26;;;;;;;17.97;14.07;;;4.90;98.30;;;;;;4114861;28;21071;-79
2021/03/18 01:10:32;;;;;;;16.90;13.87;;;4.90;98.30;;;;;;4111612;28;20480;-80
2021/03/18 01:12:34;;;;;;;16.90;13.50;;;4.90;98.30;;;;;;4116864;28;20581;-79
2021/03/18 01:14:36;;;;;;;15.60;13.90;;;4.80;98.30;;;;;;4116692;28;20493;-80
2021/03/18 01:16:41;;;;;;;16.20;13.50;;;4.90;98.30;;;;;;4113330;28;20529;-80
2021/03/18 01:18:47;;;;;;;19.47;14.17;;;4.90;98.30;;;;;;4111618;28;20620;-79
2021/03/18 01:20:50;;;;;;;17.13;13.83;;;4.90;98.30;;;;;;4111867;28;20520;-80
2021/03/18 01:22:52;;;;;;;17.43;14.00;;;4.90;98.30;;;;;;4108731;28;20489;-80
2021/03/18 01:24:55;;;;;;;16.80;13.90;;;5.00;98.30;;;;;;4116545;28;20572;-80
2021/03/18 01:26:57;;;;;;;16.77;13.00;;;5.00;98.30;;;;;;4115821;28;20591;-80
2021/03/18 01:29:00;;;;;;;18.80;15.20;;;4.90;98.30;;;;;;4115726;28;20490;-80
2021/03/18 01:31:04;;;;;;;20.50;14.90;;;4.90;98.30;;;;;;4115759;28;20489;-80
2021/03/18 01:33:07;;;;;;;19.30;14.53;;;5.00;98.30;;;;;;4115771;28;20502;-80
2021/03/18 01:35:12;;;;;;;19.77;15.03;;;5.00;98.30;;;;;;4114403;28;20563;-80
2021/03/18 01:37:14;;;;;;;29.33;16.07;;;5.00;98.30;;;;;;4116352;28;20839;-80
2021/03/18 01:39:16;;;;;;;23.73;16.60;;;4.90;98.30;;;;;;4114760;28;20505;-80
2021/03/18 01:41:20;;;;;;;25.53;16.00;;;4.70;98.30;;;;;;4114618;28;20495;-79
2021/03/18 01:43:23;;;;;;;28.27;19.37;;;4.60;98.30;;;;;;4116282;28;20868;-80
2021/03/18 01:45:25;;;;;;;26.13;16.67;;;4.60;98.30;;;;;;4115777;28;20491;-79
2021/03/18 01:47:27;;;;;;;24.57;19.03;;;4.50;98.30;;;;;;4114369;28;20500;-79
2021/03/18 01:49:30;;;;;;;23.57;17.60;;;4.50;98.30;;;;;;4110247;28;20480;-80
2021/03/18 01:51:32;;;;;;;30.40;19.13;;;4.60;98.30;;;;;;4112142;28;20507;-80
2021/03/18 01:53:34;;;;;;;25.73;18.20;;;4.60;98.30;;;;;;4112827;28;20518;-80
2021/03/18 01:55:39;;;;;;;26.00;17.87;;;4.60;98.30;;;;;;4115212;28;20312;-79
2021/03/18 01:57:41;;;;;;;21.53;16.13;;;4.70;98.30;;;;;;4115988;28;21034;-80
2021/03/18 01:59:44;;;;;;;26.43;17.23;;;4.60;98.30;;;;;;4113156;28;20489;-80
2021/03/18 02:01:46;;;;;;;26.98;17.73;;;4.60;98.30;;;;;;4112964;28;20485;-80
2021/03/18 02:03:49;;;;;;;24.23;17.33;;;4.50;98.30;;;;;;4121798;28;20236;-79
2021/03/18 02:05:52;;;;;;;28.53;18.17;;;4.40;98.30;;;;;;4115606;28;20840;-80
2021/03/18 02:07:54;;;;;;;25.10;17.83;;;4.50;98.30;;;;;;4112675;28;20502;-80
2021/03/18 02:09:57;;;;;;;29.73;19.80;;;4.50;98.30;;;;;;4113433;28;20611;-79
2021/03/18 02:11:59;;;;;;;29.00;17.57;;;4.40;98.30;;;;;;4111649;28;20520;-79
2021/03/18 02:14:01;;;;;;;27.45;19.85;;;4.50;98.30;;;;;;4111072;28;20558;-80
2021/03/18 02:16:07;;;;;;;29.30;20.60;;;4.50;98.30;;;;;;4114270;28;20221;-80
2021/03/18 02:18:17;;;;;;;27.15;21.05;;;4.40;98.30;;;;;;4113968;28;20480;-79
2021/03/18 02:21:07;;;;;;;28.20;19.00;;;4.30;98.30;;;;;;4114277;28;20266;-79
2021/03/18 02:23:47;;;;;;;23.97;18.70;;;4.30;98.30;;;;;;4107440;28;20510;-80
2021/03/18 02:26:08;;;;;;;28.60;21.47;;;4.40;98.30;;;;;;4106170;28;21065;-79
2021/03/18 02:28:34;;;;;;;38.30;20.70;;;4.40;98.30;;;;;;4114865;28;20535;-80
2021/03/18 02:30:56;;;;;;;33.88;21.77;;;4.40;98.30;;;;;;4115823;28;20327;-79
2021/03/18 02:33:25;;;;;;;30.17;20.27;;;4.50;98.30;;;;;;4115154;28;20288;-79
2021/03/18 02:35:31;;;;;;;37.28;20.13;;;4.30;98.30;;;;;;4099872;28;20241;-80
2021/03/18 02:37:37;;;;;;;32.28;21.00;;;4.00;98.30;;;;;;4113181;28;20228;-80
2021/03/18 02:39:52;;;;;;;37.83;21.42;;;3.80;98.30;;;;;;4111912;28;20259;-80
2021/03/18 02:41:57;;;;;;;32.90;20.85;;;3.80;98.30;;;;;;4114322;28;20363;-80
2021/03/18 02:44:11;;;;;;;33.70;20.00;;;3.70;98.30;;;;;;4113606;28;20320;-80
2021/03/18 02:46:13;;;;;;;34.08;20.42;;;3.70;98.30;;;;;;4115899;28;20240;-80
2021/03/18 02:48:22;;;;;;;26.63;17.15;;;3.70;98.30;;;;;;4115557;28;20234;-79
2021/03/18 02:50:25;;;;;;;32.33;18.25;;;3.80;98.30;;;;;;4109840;28;20240;-79
2021/03/18 02:52:29;;;;;;;25.80;16.90;;;3.80;98.30;;;;;;4114733;28;22253;-80
2021/03/18 02:54:33;;;;;;;29.75;17.40;;;3.90;98.30;;;;;;4112845;28;20311;-80
2021/03/18 02:56:40;;;;;;;27.88;18.15;;;3.90;98.30;;;;;;4108774;28;20328;-80
2021/03/18 02:58:43;;;;;;;33.67;18.50;;;3.90;98.30;;;;;;4109744;28;20241;-80
2021/03/18 03:00:47;;;;;;;31.00;18.52;;;3.70;98.30;;;;;;4113756;28;20319;-79
2021/03/18 03:02:54;;;;;;;29.65;17.15;;;3.50;98.30;;;;;;4115966;28;20255;-79
2021/03/18 03:04:58;;;;;;;30.23;15.07;;;3.40;98.30;;;;;;4115496;28;20704;-80
2021/03/18 03:07:00;;;;;;;23.15;14.70;;;3.20;98.30;;;;;;4112031;28;20321;-79
2021/03/18 03:09:06;;;;;;;23.80;14.75;;;3.20;98.30;;;;;;4105922;28;20313;-80
2021/03/18 03:11:09;;;;;;;30.45;14.55;;;3.30;98.30;;;;;;4109791;28;20257;-80
2021/03/18 03:13:12;;;;;;;20.60;13.05;;;3.50;98.30;;;;;;4104880;28;20241;-79
2021/03/18 03:15:15;;;;;;;32.92;14.45;;;3.60;98.30;;;;;;4110047;28;20233;-80
2021/03/18 03:17:19;;;;;;;42.95;14.60;;;3.40;98.30;;;;;;4114729;28;20589;-80
2021/03/18 03:19:22;;;;;;;49.55;16.10;;;3.40;98.30;;;;;;4114593;28;20229;-81
2021/03/18 03:21:25;;;;;;;47.08;13.10;;;3.60;98.30;;;;;;4105991;28;20584;-81
2021/03/18 03:23:28;;;;;;;40.80;14.38;;;3.70;98.30;;;;;;4115094;28;20272;-81
2021/03/18 03:25:33;;;;;;;39.75;14.88;;;3.80;98.30;;;;;;4113108;28;20244;-81
2021/03/18 03:27:35;;;;;;;34.70;14.32;;;3.70;98.30;;;;;;4113835;28;20307;-81
2021/03/18 03:29:41;;;;;;;44.60;14.63;;;3.70;98.30;;;;;;4115550;28;20692;-82
2021/03/18 03:31:44;;;;;;;68.00;22.95;;;3.70;98.30;;;;;;4116845;28;20236;-82
2021/03/18 03:33:46;;;;;;;117.85;60.60;;;3.60;98.30;;;;;;4108249;28;20240;-81
2021/03/18 03:35:48;;;;;;;100.35;50.20;;;3.60;98.30;;;;;;4118155;28;20574;-81
2021/03/18 03:37:50;;;;;;;91.65;42.15;;;3.70;98.30;;;;;;4111570;28;20270;-81
2021/03/18 03:39:52;;;;;;;56.83;18.05;;;3.80;98.30;;;;;;4117854;28;20236;-80
2021/03/18 03:41:55;;;;;;;37.47;15.80;;;3.90;98.30;;;;;;4115303;28;20281;-81
2021/03/18 03:43:57;;;;;;;37.47;14.00;;;3.90;98.30;;;;;;4116851;28;20731;-82
2021/03/18 03:46:00;;;;;;;49.05;15.70;;;3.80;98.30;;;;;;4118283;28;20238;-81
2021/03/18 03:48:07;;;;;;;41.45;14.60;;;3.70;98.30;;;;;;4114738;28;20244;-81
2021/03/18 03:50:17;;;;;;;47.25;16.02;;;3.80;98.30;;;;;;4115425;28;20232;-81
2021/03/18 03:52:25;;;;;;;48.88;16.65;;;3.80;98.30;;;;;;4117717;28;20233;-81
2021/03/18 03:54:54;;;;;;;54.78;14.70;;;3.80;98.30;;;;;;4117190;28;20228;-80
2021/03/18 03:57:03;;;;;;;46.78;15.80;;;3.80;98.30;;;;;;4117100;28;20231;-81
2021/03/18 03:59:07;;;;;;;32.63;15.70;;;3.70;98.30;;;;;;4114968;28;20233;-80
2021/03/18 04:01:19;;;;;;;38.13;15.40;;;3.70;98.30;;;;;;4114803;28;21083;-81
2021/03/18 04:03:23;;;;;;;46.35;21.48;;;3.40;98.30;;;;;;4114774;28;20229;-80
2021/03/18 04:05:27;;;;;;;42.20;17.80;;;3.20;98.30;;;;;;4116662;28;20237;-81
2021/03/18 04:07:35;;;;;;;47.65;18.83;;;3.10;98.30;;;;;;4113060;28;20236;-80
2021/03/18 04:09:38;;;;;;;48.25;17.27;;;3.10;98.30;;;;;;4113196;28;20626;-80
2021/03/18 04:11:43;;;;;;;73.20;19.38;;;3.00;98.30;;;;;;4114130;28;20240;-80
2021/03/18 04:13:50;;;;;;;84.63;21.42;;;2.90;98.30;;;;;;4111144;28;20256;-80
2021/03/18 04:15:52;;;;;;;39.72;18.77;;;2.90;98.30;;;;;;4113945;28;20794;-80
2021/03/18 04:17:55;;;;;;;47.30;20.75;;;2.90;98.30;;;;;;4118108;28;20808;-80
2021/03/18 04:20:01;;;;;;;44.75;17.05;;;2.90;98.30;;;;;;4115699;28;20311;-80
2021/03/18 04:22:04;;;;;;;58.40;18.40;;;3.00;98.30;;;;;;4117479;28;20232;-80
2021/03/18 04:24:08;;;;;;;52.80;22.25;;;2.90;98.30;;;;;;4116776;28;20316;-80
2021/03/18 04:26:13;;;;;;;41.50;18.05;;;2.90;98.30;;;;;;4117179;28;20315;-81
2021/03/18 04:28:16;;;;;;;55.22;23.25;;;3.00;98.30;;;;;;4116063;28;20332;-81
2021/03/18 04:30:20;;;;;;;52.10;17.98;;;2.90;98.30;;;;;;4115302;28;20233;-80
2021/03/18 04:32:23;;;;;;;30.30;17.10;;;3.00;98.30;;;;;;4114659;28;20278;-81
2021/03/18 04:34:27;;;;;;;74.70;19.70;;;3.00;98.30;;;;;;4114810;28;20248;-81
2021/03/18 04:36:29;;;;;;;40.33;16.60;;;3.10;98.30;;;;;;4111730;28;20228;-81
2021/03/18 04:38:34;;;;;;;30.35;15.70;;;3.20;98.30;;;;;;4115016;28;20771;-82
2021/03/18 04:40:37;;;;;;;35.20;15.38;;;3.30;98.30;;;;;;4111132;28;20268;-80
2021/03/18 04:42:39;;;;;;;27.73;15.38;;;3.40;98.30;;;;;;4114193;28;20228;-80
2021/03/18 04:44:43;;;;;;;31.40;13.32;;;3.50;98.30;;;;;;4114444;28;20241;-81
2021/03/18 04:46:48;;;;;;;40.13;15.60;;;3.50;98.30;;;;;;4106814;28;20247;-80
2021/03/18 04:48:52;;;;;;;36.25;15.80;;;3.40;98.30;;;;;;4116500;28;20328;-81
2021/03/18 04:50:55;;;;;;;33.25;16.63;;;3.50;98.30;;;;;;4116670;28;20624;-80
2021/03/18 04:52:57;;;;;;;30.30;14.82;;;3.50;98.30;;;;;;4112267;28;20249;-81
2021/03/18 04:55:00;;;;;;;29.15;12.50;;;3.50;98.30;;;;;;4115443;28;20228;-81
2021/03/18 04:57:02;;;;;;;30.15;16.95;;;3.50;98.30;;;;;;4116035;28;20252;-80
2021/03/18 04:59:06;;;;;;;35.08;17.75;;;3.60;98.30;;;;;;4115548;28;20320;-80
2021/03/18 05:01:09;;;;;;;55.65;19.55;;;3.50;98.30;;;;;;4116565;28;20682;-79
2021/03/18 05:03:13;;;;;;;38.75;16.98;;;3.40;98.30;;;;;;4116841;28;20233;-81
2021/03/18 05:05:18;;;;;;;44.40;16.88;;;3.40;98.30;;;;;;4109770;28;20756;-80
2021/03/18 05:07:22;;;;;;;35.03;16.27;;;3.40;98.30;;;;;;4112728;28;20236;-80
2021/03/18 05:09:26;;;;;;;47.05;17.70;;;3.50;98.30;;;;;;4141703;23;20292;-79
2021/03/18 05:11:32;;;;;;;48.63;16.90;;;3.60;98.30;;;;;;4140010;28;20314;-79
2021/03/18 05:13:40;;;;;;;42.67;15.93;;;3.70;98.30;;;;;;4145763;28;20886;-81
2021/03/18 05:15:43;;;;;;;40.33;15.00;;;3.60;98.30;;;;;;4142114;28;20227;-81
2021/03/18 05:17:46;;;;;;;35.33;14.30;;;3.70;98.30;;;;;;4147644;28;20241;-81
2021/03/18 05:19:49;;;;;;;40.15;14.30;;;3.60;98.30;;;;;;4144075;28;20234;-81
2021/03/18 05:21:52;;;;;;;50.88;16.40;;;3.50;98.30;;;;;;4143281;28;20220;-81
2021/03/18 05:23:56;;;;;;;55.65;17.38;;;3.40;98.30;;;;;;4140697;28;20670;-81
2021/03/18 05:25:59;;;;;;;60.40;20.10;;;3.20;98.30;;;;;;4140673;28;20300;-81
2021/03/18 05:28:01;;;;;;;64.70;20.25;;;3.20;98.30;;;;;;4140996;28;20260;-81
2021/03/18 05:30:06;;;;;;;59.10;16.50;;;3.10;98.30;;;;;;4144115;28;20258;-81
2021/03/18 05:32:10;;;;;;;49.67;15.73;;;3.00;98.30;;;;;;4139853;28;20240;-81
2021/03/18 05:34:12;;;;;;;63.13;18.50;;;3.00;98.30;;;;;;4141819;28;20297;-81
2021/03/18 05:36:15;;;;;;;46.60;16.65;;;2.90;98.30;;;;;;4140576;28;20224;-80
2021/03/18 05:38:18;;;;;;;67.20;17.20;;;2.80;98.30;;;;;;4142990;28;20303;-80
2021/03/18 05:40:20;;;;;;;64.53;19.27;;;2.80;98.30;;;;;;4140865;28;20314;-80
2021/03/18 05:42:22;;;;;;;45.67;18.30;;;2.70;98.30;;;;;;4136661;28;20270;-80
2021/03/18 05:44:24;;;;;;;109.63;23.73;;;2.70;98.30;;;;;;4139034;28;20231;-81
2021/03/18 05:46:27;;;;;;;82.40;20.45;;;2.80;98.30;;;;;;4136576;28;20250;-81
2021/03/18 05:48:29;;;;;;;55.85;16.65;;;2.80;98.30;;;;;;4137302;28;20228;-81
2021/03/18 05:50:33;;;;;;;73.43;18.15;;;2.80;98.30;;;;;;4142364;28;20230;-81
2021/03/18 05:52:37;;;;;;;41.92;16.55;;;2.80;98.30;;;;;;4143913;28;20321;-81
2021/03/18 05:54:41;;;;;;;48.90;17.45;;;2.80;98.30;;;;;;4140388;28;20232;-81
2021/03/18 05:56:43;;;;;;;40.28;16.08;;;2.80;98.30;;;;;;4143623;28;20233;-80
2021/03/18 05:58:46;;;;;;;52.70;18.70;;;2.80;98.30;;;;;;4139187;28;20259;-81
2021/03/18 06:00:50;;;;;;;145.20;68.93;;;2.80;98.30;;;;;;4137024;28;20235;-81
2021/03/18 06:02:52;;;;;;;262.70;150.82;;;2.80;98.30;;;;;;4136944;28;20250;-81
2021/03/18 06:04:55;;;;;;;86.72;35.55;;;3.00;98.30;;;;;;4140073;28;20234;-81
2021/03/18 06:06:58;;;;;;;44.47;20.98;;;3.10;98.30;;;;;;4141518;28;20258;-81
2021/03/18 06:09:01;;;;;;;49.95;18.10;;;3.20;98.30;;;;;;4140175;28;20246;-81
2021/03/18 06:11:05;;;;;;;35.72;15.80;;;3.20;98.30;;;;;;4136620;28;20689;-81
2021/03/18 06:13:07;;;;;;;39.67;15.57;;;3.30;98.30;;;;;;4141938;28;20267;-80
2021/03/18 06:15:12;;;;;;;45.80;17.00;;;3.40;98.30;;;;;;4140496;28;20315;-81
2021/03/18 06:17:16;;;;;;;36.13;15.43;;;3.40;98.30;;;;;;4139905;28;20285;-81
2021/03/18 06:19:18;;;;;;;50.83;16.52;;;3.50;98.30;;;;;;4139068;28;20347;-81
2021/03/18 06:21:44;;;;;;;45.75;16.02;;;3.50;98.30;;;;;;4140090;28;20306;-81
2021/03/18 06:24:00;;;;;;;38.85;16.25;;;3.50;98.30;;;;;;4135569;28;20228;-82
2021/03/18 06:26:04;;;;;;;44.28;15.88;;;3.60;98.30;;;;;;4141511;28;20227;-81
2021/03/18 06:28:15;;;;;;;53.58;18.17;;;3.70;98.30;;;;;;4138851;28;20230;-81
2021/03/18 06:30:19;;;;;;;88.72;41.05;;;3.70;98.30;;;;;;4141373;28;21068;-81
2021/03/18 06:32:22;;;;;;;137.75;59.20;;;3.80;98.30;;;;;;4136164;28;20238;-81
2021/03/18 06:34:38;;;;;;;58.13;23.70;;;3.80;98.30;;;;;;4140538;28;20232;-81
2021/03/18 06:36:40;;;;;;;40.17;14.80;;;3.70;98.30;;;;;;4141892;28;20266;-81
2021/03/18 06:38:42;;;;;;;25.33;14.82;;;3.70;98.30;;;;;;4134669;28;20231;-81
2021/03/18 06:40:46;;;;;;;27.98;14.50;;;3.70;98.30;;;;;;4134540;28;20224;-81
2021/03/18 06:42:57;;;;;;;40.42;15.05;;;3.70;98.30;;;;;;4137373;28;20259;-81
2021/03/18 06:45:06;;;;;;;43.97;15.45;;;3.60;98.30;;;;;;4138732;28;20271;-81
2021/03/18 06:47:09;;;;;;;37.80;15.45;;;3.70;98.30;;;;;;4135046;28;20712;-81
2021/03/18 06:49:14;;;;;;;35.42;15.10;;;3.70;98.30;;;;;;4139651;28;20231;-81
2021/03/18 06:51:18;;;;;;;43.63;16.55;;;3.70;98.30;;;;;;4135231;28;20658;-81
2021/03/18 06:53:23;;;;;;;41.85;17.05;;;3.70;98.30;;;;;;4137147;28;20271;-81
2021/03/18 06:55:28;;;;;;;42.30;18.02;;;3.80;98.30;;;;;;4139785;28;20257;-81
2021/03/18 06:57:31;;;;;;;41.30;17.17;;;3.80;98.30;;;;;;4144635;28;20264;-80
2021/03/18 06:59:36;;;;;;;37.83;16.33;;;3.80;98.30;;;;;;4136812;28;20326;-80
2021/03/18 07:01:38;;;;;;;28.10;15.15;;;3.60;98.30;;;;;;4140653;28;20258;-80
2021/03/18 07:03:41;;;;;;;28.63;15.85;;;3.50;98.30;;;;;;4146241;28;20239;-81
2021/03/18 07:05:44;;;;;;;47.50;18.90;;;3.50;98.30;;;;;;4141161;28;20607;-81
2021/03/18 07:07:47;;;;;;;51.28;18.20;;;3.60;98.30;;;;;;4146168;28;20230;-81
2021/03/18 07:09:52;;;;;;;38.70;18.02;;;3.70;98.30;;;;;;4144358;28;20281;-81
2021/03/18 07:12:00;;;;;;;35.88;16.80;;;3.70;98.30;;;;;;4143794;28;20310;-81
2021/03/18 07:14:03;;;;;;;42.10;16.63;;;3.70;98.30;;;;;;4139009;28;20313;-81
2021/03/18 07:16:09;;;;;;;47.80;17.55;;;3.80;98.30;;;;;;4143297;28;20240;-81
2021/03/18 07:18:13;;;;;;;36.50;17.63;;;3.80;98.30;;;;;;4143472;28;20231;-81
2021/03/18 07:20:18;;;;;;;37.90;16.08;;;3.90;98.30;;;;;;4141594;28;20576;-82
2021/03/18 07:22:21;;;;;;;38.65;15.60;;;3.90;98.30;;;;;;4141479;28;20258;-81
2021/03/18 07:24:28;;;;;;;50.20;18.00;;;3.90;98.30;;;;;;4143361;28;20282;-81
2021/03/18 07:26:38;;;;;;;37.38;15.52;;;3.80;98.30;;;;;;4138085;28;20231;-82
2021/03/18 07:28:41;;;;;;;43.55;19.40;;;3.90;98.30;;;;;;4142328;28;20713;-82
2021/03/18 07:30:44;;;;;;;44.72;17.55;;;3.90;98.30;;;;;;4142930;28;20234;-81
2021/03/18 07:32:47;;;;;;;38.65;17.90;;;3.90;98.30;;;;;;4143759;28;20230;-81
2021/03/18 07:34:50;;;;;;;51.40;18.65;;;3.80;98.30;;;;;;4142265;28;20289;-82
2021/03/18 07:36:56;;;;;;;38.20;17.42;;;3.90;98.30;;;;;;4144067;28;20582;-81
2021/03/18 07:39:01;;;;;;;46.50;17.45;;;3.90;98.30;;;;;;4139895;28;20584;-81
2021/03/18 07:41:05;;;;;;;38.70;16.05;;;4.10;98.30;;;;;;4142978;28;20326;-82
2021/03/18 07:43:08;;;;;;;32.05;17.92;;;4.10;98.30;;;;;;4139600;28;20279;-81
2021/03/18 07:45:11;;;;;;;41.88;15.63;;;4.10;98.30;;;;;;4146901;28;20254;-81
2021/03/18 07:47:16;;;;;;;34.00;15.85;;;4.00;98.30;;;;;;4143345;28;20306;-82
2021/03/18 07:49:20;;;;;;;35.25;16.92;;;4.00;98.30;;;;;;4139130;28;20327;-82
2021/03/18 07:51:35;;;;;;;35.05;16.20;;;4.00;98.30;;;;;;4141198;28;20333;-80
2021/03/18 07:53:39;;;;;;;31.10;16.73;;;4.10;98.30;;;;;;4140913;28;20259;-80
2021/03/18 07:55:41;;;;;;;34.05;17.23;;;4.10;98.30;;;;;;4142221;28;20228;-81
2021/03/18 07:57:44;;;;;;;34.53;16.30;;;4.10;98.30;;;;;;4139953;28;20231;-81
2021/03/18 07:59:46;;;;;;;36.47;17.45;;;4.10;98.30;;;;;;4144221;28;20255;-81
2021/03/18 08:01:49;;;;;;;33.63;17.40;;;4.10;98.30;;;;;;4143299;28;20265;-80
2021/03/18 08:03:52;;;;;;;34.07;17.37;;;4.10;98.30;;;;;;4140895;28;20485;-81
2021/03/18 08:05:55;;;;;;;31.07;17.17;;;4.10;98.30;;;;;;4140142;28;20501;-81
2021/03/18 08:07:57;;;;;;;29.23;16.30;;;4.30;98.30;;;;;;4146021;28;21017;-81
2021/03/18 08:09:59;;;;;;;28.08;15.80;;;4.40;98.30;;;;;;4144892;28;20529;-81
2021/03/18 08:12:01;;;;;;;25.40;15.13;;;4.50;98.30;;;;;;4146005;28;20287;-81
2021/03/18 08:14:07;;;;;;;28.57;14.87;;;4.60;98.30;;;;;;4145670;28;20496;-81
2021/03/18 08:16:28;;;;;;;24.60;13.75;;;4.60;98.30;;;;;;4145623;28;21022;-81
2021/03/18 08:18:39;;;;;;;24.83;13.63;;;4.70;98.30;;;;;;4141065;28;20243;-81
2021/03/18 08:21:03;;;;;;;21.73;14.63;;;4.70;98.30;;;;;;4145213;28;20487;-81
2021/03/18 08:23:40;;;;;;;22.60;12.53;;;4.80;98.30;;;;;;4144274;28;20491;-81
2021/03/18 08:25:42;;;;;;;22.70;13.13;;;4.90;98.30;;;;;;4144094;28;20558;-82
2021/03/18 08:27:44;;;;;;;18.77;12.47;;;4.90;98.30;;;;;;4150709;28;21253;-81
2021/03/18 08:29:48;;;;;;;21.83;12.80;;;4.80;98.30;;;;;;4146921;28;20886;-81
2021/03/18 08:32:09;;;;;;;24.73;12.93;;;4.90;98.30;;;;;;4147882;28;21282;-82
2021/03/18 08:34:11;;;;;;;43.13;22.53;;;5.00;98.30;;;;;;4144430;28;20494;-81
2021/03/18 08:36:27;;;;;;;112.37;55.60;;;5.10;98.30;;;;;;4148316;28;20498;-81
2021/03/18 08:38:40;;;;;;;39.80;26.30;;;5.10;98.30;;;;;;4145814;28;20488;-81
2021/03/18 08:40:59;;;;;;;22.87;12.77;;;5.20;98.30;;;;;;4142375;28;20504;-81
2021/03/18 08:43:03;;;;;;;19.77;11.33;;;5.30;98.30;;;;;;4144869;28;20498;-81
2021/03/18 08:45:25;;;;;;;16.23;11.17;;;5.30;98.30;;;;;;4142497;28;20521;-81
2021/03/18 08:47:36;;;;;;;20.80;11.10;;;5.30;98.30;;;;;;4123592;28;20505;-81
2021/03/18 08:49:43;;;;;;;17.60;10.87;;;5.40;98.30;;;;;;4142711;28;20519;-82
2021/03/18 08:51:47;;;;;;;15.17;10.60;;;5.40;98.30;;;;;;4142443;28;20520;-82
2021/03/18 08:53:49;;;;;;;18.87;9.93;;;5.50;98.30;;;;;;4146439;28;20499;-81
2021/03/18 08:55:51;;;;;;;15.20;10.13;;;5.50;98.30;;;;;;4148259;28;20521;-81
2021/03/18 08:57:59;;;;;;;19.23;11.17;;;5.60;98.30;;;;;;4144812;28;20552;-81
2021/03/18 09:00:15;;;;;;;44.10;24.50;;;5.60;98.30;;;;;;4139513;28;20533;-81
2021/03/18 09:02:28;;;;;;;23.83;13.07;;;5.70;98.30;;;;;;4133804;28;20502;-81
2021/03/18 09:04:37;;;;;;;15.30;9.50;;;5.90;98.30;;;;;;4145179;28;20500;-81
2021/03/18 09:06:48;;;;;;;15.03;9.97;;;5.70;98.30;;;;;;4134824;28;20525;-81
2021/03/18 09:08:50;;;;;;;12.80;8.43;;;5.70;98.30;;;;;;4143091;28;20601;-81
2021/03/18 09:10:54;;;;;;;10.50;8.17;;;5.80;98.30;;;;;;4138493;28;20586;-82
2021/03/18 09:12:58;;;;;;;12.53;8.73;;;5.80;98.30;;;;;;4139779;28;20516;-81
2021/03/18 09:15:23;;;;;;;15.83;8.83;;;5.70;98.30;;;;;;4142162;28;20572;-81
2021/03/18 09:17:26;;;;;;;11.13;7.63;;;5.70;98.30;;;;;;4138208;28;20502;-81
2021/03/18 09:19:46;;;;;;;13.63;8.70;;;5.70;98.30;;;;;;4141567;28;20489;-81
2021/03/18 09:21:49;;;;;;;13.63;9.13;;;5.80;98.30;;;;;;4145801;28;20536;-81
2021/03/18 09:23:51;;;;;;;24.13;15.07;;;5.80;98.30;;;;;;4143912;28;20564;-81
2021/03/18 09:25:57;;;;;;;64.97;26.33;;;5.90;98.30;;;;;;4146142;28;20491;-81
2021/03/18 09:27:59;;;;;;;56.03;28.43;;;5.80;98.30;;;;;;4141570;28;20513;-81
2021/03/18 09:30:18;;;;;;;18.40;12.30;;;5.90;98.30;;;;;;4139195;28;20486;-81
2021/03/18 09:32:22;;;;;;;10.70;8.57;;;6.00;98.30;;;;;;4137199;28;20525;-80
2021/03/18 09:34:31;;;;;;;14.90;9.50;;;6.00;98.30;;;;;;4142181;28;20562;-81
2021/03/18 09:36:33;;;;;;;17.00;9.20;;;6.10;98.30;;;;;;4143249;28;20496;-81
2021/03/18 09:38:36;;;;;;;12.00;8.17;;;5.80;98.30;;;;;;4142699;28;20493;-81
2021/03/18 09:40:38;;;;;;;13.83;8.90;;;5.80;98.30;;;;;;4139181;28;20536;-82
2021/03/18 09:42:41;;;;;;;12.97;8.97;;;6.00;98.30;;;;;;4148244;28;20493;-82
2021/03/18 09:44:43;;;;;;;14.13;9.50;;;5.90;98.30;;;;;;4140343;28;20525;-81
2021/03/18 09:46:49;;;;;;;13.87;8.40;;;5.60;98.30;;;;;;4144672;28;20577;-81
2021/03/18 09:48:51;;;;;;;11.90;8.00;;;5.70;98.30;;;;;;4145724;28;20499;-81
2021/03/18 09:50:54;;;;;;;9.67;8.07;;;5.80;98.30;;;;;;4141641;28;20487;-81
2021/03/18 09:53:08;;;;;;;10.10;8.43;;;5.80;98.30;;;;;;4143870;28;20581;-81
2021/03/18 09:55:13;;;;;;;16.90;8.63;;;5.90;98.30;;;;;;4132313;28;20570;-82
2021/03/18 09:57:16;;;;;;;11.47;8.00;;;6.20;98.30;;;;;;4138190;28;20494;-82
2021/03/18 09:59:20;;;;;;;9.87;7.90;;;6.50;98.30;;;;;;4141865;28;20592;-82
2021/03/18 10:01:25;;;;;;;10.20;7.90;;;6.60;98.30;;;;;;4137297;28;20569;-81
2021/03/18 10:03:27;;;;;;;9.60;6.70;;;6.60;98.30;;;;;;4140702;28;20501;-82
2021/03/18 10:05:29;;;;;;;11.13;7.97;;;6.70;98.30;;;;;;4139486;28;20543;-80
2021/03/18 10:07:34;;;;;;;9.97;7.77;;;6.70;98.30;;;;;;4143950;28;20491;-79
2021/03/18 10:09:39;;;;;;;14.53;8.10;;;6.70;98.30;;;;;;4142281;28;20494;-79
2021/03/18 10:11:42;;;;;;;10.70;7.33;;;6.70;98.30;;;;;;4138487;28;20498;-80
2021/03/18 10:13:45;;;;;;;11.63;8.20;;;6.60;98.30;;;;;;4142887;28;20490;-79
2021/03/18 10:15:47;;;;;;;10.83;7.93;;;6.60;98.30;;;;;;4142660;28;20445;-79
2021/03/18 10:17:50;;;;;;;8.57;7.60;;;6.60;98.30;;;;;;4142653;28;20843;-79
2021/03/18 10:19:57;;;;;;;12.70;8.13;;;6.70;98.30;;;;;;4143409;28;20568;-79
2021/03/18 10:22:00;;;;;;;11.70;8.27;;;7.20;98.30;;;;;;4142793;28;20506;-79
2021/03/18 10:24:04;;;;;;;10.87;7.80;;;7.70;98.30;;;;;;4145688;28;20503;-80
2021/03/18 10:26:06;;;;;;;9.87;7.40;;;8.00;98.30;;;;;;4137914;28;20844;-79
2021/03/18 10:28:11;;;;;;;10.87;7.97;;;8.10;98.30;;;;;;4120669;28;20972;-79
2021/03/18 10:30:17;;;;;;;11.17;7.77;;;8.10;98.30;;;;;;4145169;28;20486;-80
2021/03/18 10:32:20;;;;;;;8.73;7.50;;;8.20;98.30;;;;;;4141697;28;20468;-79
2021/03/18 10:34:26;;;;;;;10.63;7.20;;;8.10;98.30;;;;;;4134076;28;20491;-79
2021/03/18 10:36:33;;;;;;;10.80;8.13;;;7.90;98.30;;;;;;4141041;28;20485;-79
2021/03/18 10:38:38;;;;;;;23.17;12.07;;;7.60;98.30;;;;;;4145840;28;20482;-80
2021/03/18 10:40:42;;;;;;;13.77;8.80;;;7.70;98.30;;;;;;4141749;28;20460;-80
2021/03/18 10:42:49;;;;;;;12.90;7.40;;;8.00;98.30;;;;;;4139499;28;20480;-80
2021/03/18 10:44:52;;;;;;;9.47;7.53;;;8.00;98.30;;;;;;4141422;28;20501;-79